sensor_id;sensor_type;location;lat;lon;timestamp;temperature;humidity
37910;DHT22;23741;49.446;8.754;2023-06-10T00:01:27;23.10;47.70
37910;DHT22;23741;49.446;8.754;2023-06-10T00:03:30;23.10;47.80
37910;DHT22;23741;49.446;8.754;2023-06-10T00:05:32;23.00;47.80
37910;DHT22;23741;49.446;8.754;2023-06-10T00:07:33;23.00;47.80
37910;DHT22;23741;49.446;8.754;2023-06-10T00:09:39;23.00;47.70
37910;DHT22;23741;49.446;8.754;2023-06-10T00:11:41;23.00;47.80
37910;DHT22;23741;49.446;8.754;2023-06-10T00:13:43;22.90;48.00
37910;DHT22;23741;49.446;8.754;2023-06-10T00:15:45;22.90;48.10
37910;DHT22;23741;49.446;8.754;2023-06-10T00:17:47;22.90;48.20
37910;DHT22;23741;49.446;8.754;2023-06-10T00:19:48;22.80;48.10
37910;DHT22;23741;49.446;8.754;2023-06-10T00:21:52;22.80;48.30
37910;DHT22;23741;49.446;8.754;2023-06-10T00:23:54;22.80;48.30
37910;DHT22;23741;49.446;8.754;2023-06-10T00:25:59;22.90;48.30
37910;DHT22;23741;49.446;8.754;2023-06-10T00:28:01;22.80;48.30
37910;DHT22;23741;49.446;8.754;2023-06-10T00:30:04;22.70;48.10
37910;DHT22;23741;49.446;8.754;2023-06-10T00:32:08;22.70;48.20
37910;DHT22;23741;49.446;8.754;2023-06-10T00:34:10;22.70;48.20
37910;DHT22;23741;49.446;8.754;2023-06-10T00:36:11;22.70;48.40
37910;DHT22;23741;49.446;8.754;2023-06-10T00:38:13;22.60;48.20
37910;DHT22;23741;49.446;8.754;2023-06-10T00:40:17;22.60;48.40
37910;DHT22;23741;49.446;8.754;2023-06-10T00:42:19;22.60;48.50
37910;DHT22;23741;49.446;8.754;2023-06-10T00:44:21;22.60;48.60
37910;DHT22;23741;49.446;8.754;2023-06-10T00:46:23;22.60;48.50
37910;DHT22;23741;49.446;8.754;2023-06-10T00:48:25;22.50;48.50
37910;DHT22;23741;49.446;8.754;2023-06-10T00:50:27;22.60;48.80
37910;DHT22;23741;49.446;8.754;2023-06-10T00:52:29;22.50;48.80
37910;DHT22;23741;49.446;8.754;2023-06-10T00:54:31;22.40;48.70
37910;DHT22;23741;49.446;8.754;2023-06-10T00:56:34;22.50;49.00
37910;DHT22;23741;49.446;8.754;2023-06-10T00:58:37;22.40;48.80
37910;DHT22;23741;49.446;8.754;2023-06-10T01:00:38;22.40;48.70
37910;DHT22;23741;49.446;8.754;2023-06-10T01:02:41;22.40;49.00
37910;DHT22;23741;49.446;8.754;2023-06-10T01:04:43;22.40;49.00
37910;DHT22;23741;49.446;8.754;2023-06-10T01:10:01;22.30;48.90
37910;DHT22;23741;49.446;8.754;2023-06-10T01:11:39;22.30;49.10
37910;DHT22;23741;49.446;8.754;2023-06-10T01:13:43;22.30;48.90
37910;DHT22;23741;49.446;8.754;2023-06-10T01:15:45;22.30;49.00
37910;DHT22;23741;49.446;8.754;2023-06-10T01:18:03;22.30;49.00
37910;DHT22;23741;49.446;8.754;2023-06-10T01:20:05;22.30;49.00
37910;DHT22;23741;49.446;8.754;2023-06-10T01:22:13;22.30;49.10
37910;DHT22;23741;49.446;8.754;2023-06-10T01:24:18;22.30;49.10
37910;DHT22;23741;49.446;8.754;2023-06-10T01:26:22;22.20;49.10
37910;DHT22;23741;49.446;8.754;2023-06-10T01:28:33;22.20;49.20
37910;DHT22;23741;49.446;8.754;2023-06-10T01:32:50;22.20;49.10
37910;DHT22;23741;49.446;8.754;2023-06-10T01:34:52;22.20;49.10
37910;DHT22;23741;49.446;8.754;2023-06-10T01:36:54;22.20;49.20
37910;DHT22;23741;49.446;8.754;2023-06-10T01:38:57;22.20;49.20
37910;DHT22;23741;49.446;8.754;2023-06-10T01:41:00;22.20;49.30
37910;DHT22;23741;49.446;8.754;2023-06-10T01:43:02;22.20;49.20
37910;DHT22;23741;49.446;8.754;2023-06-10T01:45:04;22.20;49.30
37910;DHT22;23741;49.446;8.754;2023-06-10T01:47:06;22.10;49.20
37910;DHT22;23741;49.446;8.754;2023-06-10T01:49:08;22.20;49.20
37910;DHT22;23741;49.446;8.754;2023-06-10T01:51:10;22.10;49.30
37910;DHT22;23741;49.446;8.754;2023-06-10T01:53:11;22.20;49.30
37910;DHT22;23741;49.446;8.754;2023-06-10T01:55:13;22.20;49.30
37910;DHT22;23741;49.446;8.754;2023-06-10T01:57:15;22.20;49.30
37910;DHT22;23741;49.446;8.754;2023-06-10T01:59:17;22.20;49.30
37910;DHT22;23741;49.446;8.754;2023-06-10T02:01:19;22.20;49.30
37910;DHT22;23741;49.446;8.754;2023-06-10T02:03:21;22.20;49.40
37910;DHT22;23741;49.446;8.754;2023-06-10T02:05:23;22.20;49.40
37910;DHT22;23741;49.446;8.754;2023-06-10T02:07:24;22.20;49.50
37910;DHT22;23741;49.446;8.754;2023-06-10T02:09:26;22.20;49.40
37910;DHT22;23741;49.446;8.754;2023-06-10T02:11:28;22.20;49.50
37910;DHT22;23741;49.446;8.754;2023-06-10T02:13:30;22.20;49.50
37910;DHT22;23741;49.446;8.754;2023-06-10T02:15:32;22.20;50.10
37910;DHT22;23741;49.446;8.754;2023-06-10T02:17:33;22.20;49.40
37910;DHT22;23741;49.446;8.754;2023-06-10T02:19:35;22.20;49.50
37910;DHT22;23741;49.446;8.754;2023-06-10T02:21:38;22.20;49.50
37910;DHT22;23741;49.446;8.754;2023-06-10T02:23:40;22.20;49.60
37910;DHT22;23741;49.446;8.754;2023-06-10T02:25:42;22.20;49.60
37910;DHT22;23741;49.446;8.754;2023-06-10T02:27:44;22.10;49.70
37910;DHT22;23741;49.446;8.754;2023-06-10T02:29:46;22.20;49.70
37910;DHT22;23741;49.446;8.754;2023-06-10T02:31:48;22.20;49.70
37910;DHT22;23741;49.446;8.754;2023-06-10T02:33:50;22.20;49.70
37910;DHT22;23741;49.446;8.754;2023-06-10T02:35:52;22.10;49.80
37910;DHT22;23741;49.446;8.754;2023-06-10T02:37:54;22.10;49.70
37910;DHT22;23741;49.446;8.754;2023-06-10T02:39:56;22.20;49.90
37910;DHT22;23741;49.446;8.754;2023-06-10T02:41:58;22.10;49.90
37910;DHT22;23741;49.446;8.754;2023-06-10T02:44:00;22.10;49.90
37910;DHT22;23741;49.446;8.754;2023-06-10T02:46:02;22.10;49.90
37910;DHT22;23741;49.446;8.754;2023-06-10T02:48:05;22.10;50.00
37910;DHT22;23741;49.446;8.754;2023-06-10T02:50:08;22.10;50.00
37910;DHT22;23741;49.446;8.754;2023-06-10T02:52:17;22.10;50.00
37910;DHT22;23741;49.446;8.754;2023-06-10T02:54:19;22.10;50.00
37910;DHT22;23741;49.446;8.754;2023-06-10T02:56:21;22.10;50.00
37910;DHT22;23741;49.446;8.754;2023-06-10T02:58:23;22.10;50.00
37910;DHT22;23741;49.446;8.754;2023-06-10T03:00:25;22.00;50.00
37910;DHT22;23741;49.446;8.754;2023-06-10T03:02:27;22.00;49.80
37910;DHT22;23741;49.446;8.754;2023-06-10T03:04:30;22.00;50.00
37910;DHT22;23741;49.446;8.754;2023-06-10T03:06:38;22.00;50.00
37910;DHT22;23741;49.446;8.754;2023-06-10T03:08:47;22.00;50.10
37910;DHT22;23741;49.446;8.754;2023-06-10T03:10:52;22.00;50.10
37910;DHT22;23741;49.446;8.754;2023-06-10T03:12:54;22.00;50.20
37910;DHT22;23741;49.446;8.754;2023-06-10T03:14:58;22.00;50.20
37910;DHT22;23741;49.446;8.754;2023-06-10T03:17:02;22.00;50.10
37910;DHT22;23741;49.446;8.754;2023-06-10T03:19:06;21.90;50.90
37910;DHT22;23741;49.446;8.754;2023-06-10T03:21:09;21.90;50.30
37910;DHT22;23741;49.446;8.754;2023-06-10T03:23:11;21.90;50.20
37910;DHT22;23741;49.446;8.754;2023-06-10T03:25:14;21.90;50.40
37910;DHT22;23741;49.446;8.754;2023-06-10T03:27:20;21.90;50.40
37910;DHT22;23741;49.446;8.754;2023-06-10T03:29:25;21.80;50.40
37910;DHT22;23741;49.446;8.754;2023-06-10T03:31:28;21.80;50.40
37910;DHT22;23741;49.446;8.754;2023-06-10T03:33:31;21.80;50.40
37910;DHT22;23741;49.446;8.754;2023-06-10T03:35:34;21.80;50.50
37910;DHT22;23741;49.446;8.754;2023-06-10T03:37:37;21.80;50.40
37910;DHT22;23741;49.446;8.754;2023-06-10T03:39:39;21.80;50.30
37910;DHT22;23741;49.446;8.754;2023-06-10T03:41:42;21.80;50.50
37910;DHT22;23741;49.446;8.754;2023-06-10T03:43:45;21.80;50.50
37910;DHT22;23741;49.446;8.754;2023-06-10T03:45:48;21.80;50.40
37910;DHT22;23741;49.446;8.754;2023-06-10T03:47:51;21.80;50.50
37910;DHT22;23741;49.446;8.754;2023-06-10T03:49:57;21.70;50.40
37910;DHT22;23741;49.446;8.754;2023-06-10T03:51:59;21.80;50.70
37910;DHT22;23741;49.446;8.754;2023-06-10T03:54:01;21.70;50.40
37910;DHT22;23741;49.446;8.754;2023-06-10T03:56:03;21.80;50.70
37910;DHT22;23741;49.446;8.754;2023-06-10T03:58:05;21.70;50.80
37910;DHT22;23741;49.446;8.754;2023-06-10T04:00:07;21.70;50.70
37910;DHT22;23741;49.446;8.754;2023-06-10T04:02:17;21.70;50.80
37910;DHT22;23741;49.446;8.754;2023-06-10T04:04:19;21.70;51.50
37910;DHT22;23741;49.446;8.754;2023-06-10T04:06:21;21.70;50.60
37910;DHT22;23741;49.446;8.754;2023-06-10T04:08:28;21.70;50.90
37910;DHT22;23741;49.446;8.754;2023-06-10T04:10:30;21.70;51.00
37910;DHT22;23741;49.446;8.754;2023-06-10T04:12:32;21.70;50.90
37910;DHT22;23741;49.446;8.754;2023-06-10T04:14:34;21.70;51.00
37910;DHT22;23741;49.446;8.754;2023-06-10T04:16:38;21.70;50.90
37910;DHT22;23741;49.446;8.754;2023-06-10T04:18:40;21.70;51.10
37910;DHT22;23741;49.446;8.754;2023-06-10T04:20:44;21.60;51.10
37910;DHT22;23741;49.446;8.754;2023-06-10T04:22:47;21.60;51.20
37910;DHT22;23741;49.446;8.754;2023-06-10T04:24:50;21.60;51.10
37910;DHT22;23741;49.446;8.754;2023-06-10T04:26:52;21.60;51.00
37910;DHT22;23741;49.446;8.754;2023-06-10T04:28:54;21.60;51.10
37910;DHT22;23741;49.446;8.754;2023-06-10T04:30:56;21.60;51.40
37910;DHT22;23741;49.446;8.754;2023-06-10T04:32:59;21.60;51.20
37910;DHT22;23741;49.446;8.754;2023-06-10T04:35:01;21.60;51.50
37910;DHT22;23741;49.446;8.754;2023-06-10T04:37:04;21.50;51.30
37910;DHT22;23741;49.446;8.754;2023-06-10T04:39:05;21.50;51.30
37910;DHT22;23741;49.446;8.754;2023-06-10T04:41:09;21.50;51.50
37910;DHT22;23741;49.446;8.754;2023-06-10T04:43:11;21.50;51.50
37910;DHT22;23741;49.446;8.754;2023-06-10T04:45:13;21.50;51.60
37910;DHT22;23741;49.446;8.754;2023-06-10T04:47:15;21.50;51.90
37910;DHT22;23741;49.446;8.754;2023-06-10T04:49:19;21.50;51.60
37910;DHT22;23741;49.446;8.754;2023-06-10T04:51:21;21.50;51.80
37910;DHT22;23741;49.446;8.754;2023-06-10T04:53:22;21.50;51.70
37910;DHT22;23741;49.446;8.754;2023-06-10T04:55:24;21.50;51.90
37910;DHT22;23741;49.446;8.754;2023-06-10T04:57:27;21.50;51.90
37910;DHT22;23741;49.446;8.754;2023-06-10T04:59:28;21.50;52.10
37910;DHT22;23741;49.446;8.754;2023-06-10T05:01:31;21.50;52.20
37910;DHT22;23741;49.446;8.754;2023-06-10T05:03:33;21.50;52.30
37910;DHT22;23741;49.446;8.754;2023-06-10T05:05:35;21.50;52.10
37910;DHT22;23741;49.446;8.754;2023-06-10T05:07:37;21.50;52.10
37910;DHT22;23741;49.446;8.754;2023-06-10T05:09:39;21.50;52.70
37910;DHT22;23741;49.446;8.754;2023-06-10T05:11:40;21.50;52.50
37910;DHT22;23741;49.446;8.754;2023-06-10T05:13:42;21.50;52.40
37910;DHT22;23741;49.446;8.754;2023-06-10T05:15:45;21.50;52.40
37910;DHT22;23741;49.446;8.754;2023-06-10T05:17:48;21.50;52.60
37910;DHT22;23741;49.446;8.754;2023-06-10T05:19:49;21.50;52.60
37910;DHT22;23741;49.446;8.754;2023-06-10T05:21:51;21.50;52.30
37910;DHT22;23741;49.446;8.754;2023-06-10T05:23:53;21.60;52.50
37910;DHT22;23741;49.446;8.754;2023-06-10T05:25:55;21.50;52.80
37910;DHT22;23741;49.446;8.754;2023-06-10T05:27:57;21.60;52.70
37910;DHT22;23741;49.446;8.754;2023-06-10T05:29:59;21.60;53.20
37910;DHT22;23741;49.446;8.754;2023-06-10T05:32:01;21.60;52.80
37910;DHT22;23741;49.446;8.754;2023-06-10T05:34:05;21.60;53.00
37910;DHT22;23741;49.446;8.754;2023-06-10T05:36:06;21.60;52.60
37910;DHT22;23741;49.446;8.754;2023-06-10T05:38:08;21.60;52.60
37910;DHT22;23741;49.446;8.754;2023-06-10T05:40:10;21.60;52.60
37910;DHT22;23741;49.446;8.754;2023-06-10T05:42:12;21.60;52.40
37910;DHT22;23741;49.446;8.754;2023-06-10T05:44:14;21.60;53.00
37910;DHT22;23741;49.446;8.754;2023-06-10T05:46:15;21.60;52.80
37910;DHT22;23741;49.446;8.754;2023-06-10T05:48:17;21.70;52.80
37910;DHT22;23741;49.446;8.754;2023-06-10T05:50:21;21.70;52.70
37910;DHT22;23741;49.446;8.754;2023-06-10T05:52:22;21.70;52.80
37910;DHT22;23741;49.446;8.754;2023-06-10T05:54:25;21.70;52.80
37910;DHT22;23741;49.446;8.754;2023-06-10T05:56:30;21.70;53.00
37910;DHT22;23741;49.446;8.754;2023-06-10T05:58:32;21.70;53.00
37910;DHT22;23741;49.446;8.754;2023-06-10T06:00:34;21.70;53.10
37910;DHT22;23741;49.446;8.754;2023-06-10T06:02:39;21.80;52.90
37910;DHT22;23741;49.446;8.754;2023-06-10T06:04:40;21.80;53.00
37910;DHT22;23741;49.446;8.754;2023-06-10T06:06:42;21.80;52.90
37910;DHT22;23741;49.446;8.754;2023-06-10T06:08:44;21.80;52.80
37910;DHT22;23741;49.446;8.754;2023-06-10T06:10:46;21.90;52.80
37910;DHT22;23741;49.446;8.754;2023-06-10T06:12:49;21.90;52.70
37910;DHT22;23741;49.446;8.754;2023-06-10T06:14:50;21.90;52.90
37910;DHT22;23741;49.446;8.754;2023-06-10T06:16:52;21.90;53.10
37910;DHT22;23741;49.446;8.754;2023-06-10T06:18:54;21.90;52.80
37910;DHT22;23741;49.446;8.754;2023-06-10T06:20:56;22.00;52.90
37910;DHT22;23741;49.446;8.754;2023-06-10T06:22:57;22.00;52.90
37910;DHT22;23741;49.446;8.754;2023-06-10T06:24:59;22.00;53.40
37910;DHT22;23741;49.446;8.754;2023-06-10T06:27:01;22.10;52.70
37910;DHT22;23741;49.446;8.754;2023-06-10T06:29:03;22.10;52.90
37910;DHT22;23741;49.446;8.754;2023-06-10T06:31:05;22.10;52.80
37910;DHT22;23741;49.446;8.754;2023-06-10T06:33:06;22.20;52.70
37910;DHT22;23741;49.446;8.754;2023-06-10T06:35:08;22.30;52.70
37910;DHT22;23741;49.446;8.754;2023-06-10T06:37:10;22.20;52.80
37910;DHT22;23741;49.446;8.754;2023-06-10T06:39:16;22.30;52.80
37910;DHT22;23741;49.446;8.754;2023-06-10T06:41:17;22.30;52.80
37910;DHT22;23741;49.446;8.754;2023-06-10T06:43:19;22.30;52.70
37910;DHT22;23741;49.446;8.754;2023-06-10T06:45:37;22.40;53.00
37910;DHT22;23741;49.446;8.754;2023-06-10T06:47:38;22.40;52.90
37910;DHT22;23741;49.446;8.754;2023-06-10T06:49:40;22.40;52.70
37910;DHT22;23741;49.446;8.754;2023-06-10T06:51:42;22.50;52.80
37910;DHT22;23741;49.446;8.754;2023-06-10T06:53:44;22.60;52.80
37910;DHT22;23741;49.446;8.754;2023-06-10T06:55:47;22.60;52.70
37910;DHT22;23741;49.446;8.754;2023-06-10T06:57:48;22.60;52.60
37910;DHT22;23741;49.446;8.754;2023-06-10T06:59:50;22.70;52.40
37910;DHT22;23741;49.446;8.754;2023-06-10T07:01:52;22.70;52.50
37910;DHT22;23741;49.446;8.754;2023-06-10T07:03:56;22.70;52.30
37910;DHT22;23741;49.446;8.754;2023-06-10T07:05:57;22.70;52.10
37910;DHT22;23741;49.446;8.754;2023-06-10T07:07:59;22.80;52.10
37910;DHT22;23741;49.446;8.754;2023-06-10T07:10:01;22.80;52.10
37910;DHT22;23741;49.446;8.754;2023-06-10T07:12:03;22.90;52.10
37910;DHT22;23741;49.446;8.754;2023-06-10T07:14:05;22.90;52.10
37910;DHT22;23741;49.446;8.754;2023-06-10T07:16:06;23.00;52.00
37910;DHT22;23741;49.446;8.754;2023-06-10T07:18:08;23.00;51.80
37910;DHT22;23741;49.446;8.754;2023-06-10T07:20:10;23.10;51.90
37910;DHT22;23741;49.446;8.754;2023-06-10T07:22:12;23.10;51.80
37910;DHT22;23741;49.446;8.754;2023-06-10T07:24:14;23.20;51.90
37910;DHT22;23741;49.446;8.754;2023-06-10T07:26:16;23.20;51.80
37910;DHT22;23741;49.446;8.754;2023-06-10T07:28:18;23.30;52.50
37910;DHT22;23741;49.446;8.754;2023-06-10T07:30:19;23.30;51.70
37910;DHT22;23741;49.446;8.754;2023-06-10T07:32:21;23.30;51.70
37910;DHT22;23741;49.446;8.754;2023-06-10T07:34:25;23.40;51.70
37910;DHT22;23741;49.446;8.754;2023-06-10T07:36:27;23.40;51.70
37910;DHT22;23741;49.446;8.754;2023-06-10T07:38:30;23.50;51.60
37910;DHT22;23741;49.446;8.754;2023-06-10T07:40:31;23.60;51.60
37910;DHT22;23741;49.446;8.754;2023-06-10T07:42:36;23.60;51.60
37910;DHT22;23741;49.446;8.754;2023-06-10T07:44:38;23.70;51.60
37910;DHT22;23741;49.446;8.754;2023-06-10T07:46:39;23.70;51.50
37910;DHT22;23741;49.446;8.754;2023-06-10T07:48:41;23.80;51.50
37910;DHT22;23741;49.446;8.754;2023-06-10T07:50:43;23.80;51.40
37910;DHT22;23741;49.446;8.754;2023-06-10T07:52:45;23.90;51.40
37910;DHT22;23741;49.446;8.754;2023-06-10T07:54:46;23.90;51.50
37910;DHT22;23741;49.446;8.754;2023-06-10T07:56:48;24.00;51.50
37910;DHT22;23741;49.446;8.754;2023-06-10T07:58:50;24.00;51.40
37910;DHT22;23741;49.446;8.754;2023-06-10T08:00:51;24.10;51.40
37910;DHT22;23741;49.446;8.754;2023-06-10T08:02:53;24.10;51.20
37910;DHT22;23741;49.446;8.754;2023-06-10T08:04:55;24.10;51.10
37910;DHT22;23741;49.446;8.754;2023-06-10T08:06:57;24.30;51.00
37910;DHT22;23741;49.446;8.754;2023-06-10T08:08:59;24.30;51.00
37910;DHT22;23741;49.446;8.754;2023-06-10T08:11:01;24.30;50.90
37910;DHT22;23741;49.446;8.754;2023-06-10T08:13:03;24.40;50.90
37910;DHT22;23741;49.446;8.754;2023-06-10T08:15:05;24.50;50.90
37910;DHT22;23741;49.446;8.754;2023-06-10T08:17:07;24.50;50.90
37910;DHT22;23741;49.446;8.754;2023-06-10T08:19:09;24.60;50.80
37910;DHT22;23741;49.446;8.754;2023-06-10T08:21:11;24.60;50.80
37910;DHT22;23741;49.446;8.754;2023-06-10T08:23:13;24.70;50.80
37910;DHT22;23741;49.446;8.754;2023-06-10T08:25:15;24.80;50.80
37910;DHT22;23741;49.446;8.754;2023-06-10T08:27:17;24.80;50.60
37910;DHT22;23741;49.446;8.754;2023-06-10T08:29:19;24.80;50.50
37910;DHT22;23741;49.446;8.754;2023-06-10T08:31:20;24.90;50.50
37910;DHT22;23741;49.446;8.754;2023-06-10T08:33:22;24.90;50.50
37910;DHT22;23741;49.446;8.754;2023-06-10T08:35:24;25.00;50.50
37910;DHT22;23741;49.446;8.754;2023-06-10T08:37:26;25.00;50.40
37910;DHT22;23741;49.446;8.754;2023-06-10T08:39:28;25.10;50.40
37910;DHT22;23741;49.446;8.754;2023-06-10T08:41:37;25.20;50.40
37910;DHT22;23741;49.446;8.754;2023-06-10T08:44:26;25.20;50.40
37910;DHT22;23741;49.446;8.754;2023-06-10T08:46:06;25.30;50.30
37910;DHT22;23741;49.446;8.754;2023-06-10T08:48:09;25.40;50.20
37910;DHT22;23741;49.446;8.754;2023-06-10T08:50:13;25.40;50.20
37910;DHT22;23741;49.446;8.754;2023-06-10T08:52:17;25.40;49.80
37910;DHT22;23741;49.446;8.754;2023-06-10T08:54:20;25.50;50.00
37910;DHT22;23741;49.446;8.754;2023-06-10T08:56:23;25.50;50.00
37910;DHT22;23741;49.446;8.754;2023-06-10T08:58:27;25.50;49.80
37910;DHT22;23741;49.446;8.754;2023-06-10T09:00:30;25.60;49.60
37910;DHT22;23741;49.446;8.754;2023-06-10T09:02:32;25.70;49.60
37910;DHT22;23741;49.446;8.754;2023-06-10T09:04:36;25.70;49.40
37910;DHT22;23741;49.446;8.754;2023-06-10T09:06:38;25.70;49.60
37910;DHT22;23741;49.446;8.754;2023-06-10T09:08:41;25.80;49.20
37910;DHT22;23741;49.446;8.754;2023-06-10T09:10:43;25.90;49.30
37910;DHT22;23741;49.446;8.754;2023-06-10T09:12:45;25.90;49.40
37910;DHT22;23741;49.446;8.754;2023-06-10T09:14:47;25.90;49.50
37910;DHT22;23741;49.446;8.754;2023-06-10T09:16:49;26.00;49.40
37910;DHT22;23741;49.446;8.754;2023-06-10T09:18:51;26.00;49.40
37910;DHT22;23741;49.446;8.754;2023-06-10T09:20:56;26.10;49.50
37910;DHT22;23741;49.446;8.754;2023-06-10T09:22:59;26.10;49.40
37910;DHT22;23741;49.446;8.754;2023-06-10T09:25:04;26.20;49.30
37910;DHT22;23741;49.446;8.754;2023-06-10T09:27:07;26.20;48.70
37910;DHT22;23741;49.446;8.754;2023-06-10T09:29:10;26.30;49.20
37910;DHT22;23741;49.446;8.754;2023-06-10T09:31:13;26.40;48.90
37910;DHT22;23741;49.446;8.754;2023-06-10T09:33:15;26.40;49.20
37910;DHT22;23741;49.446;8.754;2023-06-10T09:35:17;26.40;49.10
37910;DHT22;23741;49.446;8.754;2023-06-10T09:37:23;26.50;48.90
37910;DHT22;23741;49.446;8.754;2023-06-10T09:39:25;26.50;48.80
37910;DHT22;23741;49.446;8.754;2023-06-10T09:41:33;26.60;47.80
37910;DHT22;23741;49.446;8.754;2023-06-10T09:43:42;26.60;46.60
37910;DHT22;23741;49.446;8.754;2023-06-10T09:45:49;26.60;48.20
37910;DHT22;23741;49.446;8.754;2023-06-10T09:47:51;26.70;47.80
37910;DHT22;23741;49.446;8.754;2023-06-10T09:49:53;26.70;48.50
37910;DHT22;23741;49.446;8.754;2023-06-10T09:51:55;26.80;48.50
37910;DHT22;23741;49.446;8.754;2023-06-10T09:53:57;26.80;48.80
37910;DHT22;23741;49.446;8.754;2023-06-10T09:56:00;26.90;48.50
37910;DHT22;23741;49.446;8.754;2023-06-10T09:58:01;27.00;48.50
37910;DHT22;23741;49.446;8.754;2023-06-10T10:00:05;27.00;48.60
37910;DHT22;23741;49.446;8.754;2023-06-10T10:02:15;27.10;48.70
37910;DHT22;23741;49.446;8.754;2023-06-10T10:04:22;27.20;47.70
37910;DHT22;23741;49.446;8.754;2023-06-10T10:06:24;27.20;48.10
37910;DHT22;23741;49.446;8.754;2023-06-10T10:08:27;27.20;47.70
37910;DHT22;23741;49.446;8.754;2023-06-10T10:10:28;27.30;48.10
37910;DHT22;23741;49.446;8.754;2023-06-10T10:12:30;27.40;48.40
37910;DHT22;23741;49.446;8.754;2023-06-10T10:14:32;27.50;48.20
37910;DHT22;23741;49.446;8.754;2023-06-10T10:16:37;27.50;48.30
37910;DHT22;23741;49.446;8.754;2023-06-10T10:18:43;27.60;48.10
37910;DHT22;23741;49.446;8.754;2023-06-10T10:20:49;27.60;48.10
37910;DHT22;23741;49.446;8.754;2023-06-10T10:22:55;27.80;47.90
37910;DHT22;23741;49.446;8.754;2023-06-10T10:24:58;27.80;47.80
37910;DHT22;23741;49.446;8.754;2023-06-10T10:27:04;27.90;48.30
37910;DHT22;23741;49.446;8.754;2023-06-10T10:29:10;27.90;48.00
37910;DHT22;23741;49.446;8.754;2023-06-10T10:31:13;28.00;46.90
37910;DHT22;23741;49.446;8.754;2023-06-10T10:33:20;28.10;46.90
37910;DHT22;23741;49.446;8.754;2023-06-10T10:35:24;28.20;47.90
37910;DHT22;23741;49.446;8.754;2023-06-10T10:37:26;28.20;42.80
37910;DHT22;23741;49.446;8.754;2023-06-10T10:39:28;28.20;45.10
37910;DHT22;23741;49.446;8.754;2023-06-10T10:41:31;28.30;46.30
37910;DHT22;23741;49.446;8.754;2023-06-10T10:43:34;28.40;46.70
37910;DHT22;23741;49.446;8.754;2023-06-10T10:45:36;28.40;46.80
37910;DHT22;23741;49.446;8.754;2023-06-10T10:47:37;28.50;42.30
37910;DHT22;23741;49.446;8.754;2023-06-10T10:49:41;28.50;45.80
37910;DHT22;23741;49.446;8.754;2023-06-10T10:51:54;28.60;46.30
37910;DHT22;23741;49.446;8.754;2023-06-10T10:54:11;28.60;46.80
37910;DHT22;23741;49.446;8.754;2023-06-10T10:56:15;28.70;47.00
37910;DHT22;23741;49.446;8.754;2023-06-10T10:58:23;28.80;46.10
37910;DHT22;23741;49.446;8.754;2023-06-10T11:00:32;28.80;46.10
37910;DHT22;23741;49.446;8.754;2023-06-10T11:02:40;28.90;46.80
37910;DHT22;23741;49.446;8.754;2023-06-10T11:04:48;28.90;46.40
37910;DHT22;23741;49.446;8.754;2023-06-10T11:06:53;29.00;46.50
37910;DHT22;23741;49.446;8.754;2023-06-10T11:08:55;29.00;47.00
37910;DHT22;23741;49.446;8.754;2023-06-10T11:11:24;29.10;46.60
37910;DHT22;23741;49.446;8.754;2023-06-10T11:13:25;29.20;46.70
37910;DHT22;23741;49.446;8.754;2023-06-10T11:15:27;29.20;45.30
37910;DHT22;23741;49.446;8.754;2023-06-10T11:17:29;29.30;46.30
37910;DHT22;23741;49.446;8.754;2023-06-10T11:19:34;29.40;45.20
37910;DHT22;23741;49.446;8.754;2023-06-10T11:21:58;29.50;46.10
37910;DHT22;23741;49.446;8.754;2023-06-10T11:23:58;29.50;46.30
37910;DHT22;23741;49.446;8.754;2023-06-10T11:28:18;29.70;45.80
37910;DHT22;23741;49.446;8.754;2023-06-10T11:30:21;29.70;45.90
37910;DHT22;23741;49.446;8.754;2023-06-10T11:32:30;29.80;45.80
37910;DHT22;23741;49.446;8.754;2023-06-10T11:34:33;29.80;45.80
37910;DHT22;23741;49.446;8.754;2023-06-10T11:36:42;29.90;45.60
37910;DHT22;23741;49.446;8.754;2023-06-10T11:38:46;29.90;45.70
37910;DHT22;23741;49.446;8.754;2023-06-10T11:40:48;30.00;45.60
37910;DHT22;23741;49.446;8.754;2023-06-10T11:42:50;30.00;45.60
37910;DHT22;23741;49.446;8.754;2023-06-10T11:44:52;30.10;45.10
37910;DHT22;23741;49.446;8.754;2023-06-10T11:46:55;30.10;44.90
37910;DHT22;23741;49.446;8.754;2023-06-10T11:48:58;30.00;45.30
37910;DHT22;23741;49.446;8.754;2023-06-10T11:51:00;30.00;44.20
37910;DHT22;23741;49.446;8.754;2023-06-10T11:53:02;30.10;45.00
37910;DHT22;23741;49.446;8.754;2023-06-10T11:55:04;30.10;44.00
37910;DHT22;23741;49.446;8.754;2023-06-10T11:57:08;30.10;44.40
37910;DHT22;23741;49.446;8.754;2023-06-10T11:59:10;30.10;44.10
37910;DHT22;23741;49.446;8.754;2023-06-10T12:01:12;30.10;44.40
37910;DHT22;23741;49.446;8.754;2023-06-10T12:03:20;30.20;39.70
37910;DHT22;23741;49.446;8.754;2023-06-10T12:05:24;30.20;43.60
37910;DHT22;23741;49.446;8.754;2023-06-10T12:07:26;30.30;44.50
37910;DHT22;23741;49.446;8.754;2023-06-10T12:09:28;30.40;44.90
37910;DHT22;23741;49.446;8.754;2023-06-10T12:11:30;30.40;44.90
37910;DHT22;23741;49.446;8.754;2023-06-10T12:13:32;30.50;44.50
37910;DHT22;23741;49.446;8.754;2023-06-10T12:15:34;30.60;44.40
37910;DHT22;23741;49.446;8.754;2023-06-10T12:17:37;30.70;44.40
37910;DHT22;23741;49.446;8.754;2023-06-10T12:19:40;30.80;44.40
37910;DHT22;23741;49.446;8.754;2023-06-10T12:21:42;30.80;44.50
37910;DHT22;23741;49.446;8.754;2023-06-10T12:23:59;30.90;44.70
37910;DHT22;23741;49.446;8.754;2023-06-10T12:26:01;30.90;43.80
37910;DHT22;23741;49.446;8.754;2023-06-10T12:28:03;31.00;44.50
37910;DHT22;23741;49.446;8.754;2023-06-10T12:30:05;31.10;44.90
37910;DHT22;23741;49.446;8.754;2023-06-10T12:32:07;31.20;44.20
37910;DHT22;23741;49.446;8.754;2023-06-10T12:34:09;31.30;43.80
37910;DHT22;23741;49.446;8.754;2023-06-10T12:36:15;31.30;43.60
37910;DHT22;23741;49.446;8.754;2023-06-10T12:38:24;31.40;44.00
37910;DHT22;23741;49.446;8.754;2023-06-10T12:40:27;31.50;41.10
37910;DHT22;23741;49.446;8.754;2023-06-10T12:42:29;31.60;42.90
37910;DHT22;23741;49.446;8.754;2023-06-10T12:44:33;31.70;43.40
37910;DHT22;23741;49.446;8.754;2023-06-10T12:46:36;31.70;43.30
37910;DHT22;23741;49.446;8.754;2023-06-10T12:48:43;31.80;41.90
37910;DHT22;23741;49.446;8.754;2023-06-10T12:50:57;31.80;42.30
37910;DHT22;23741;49.446;8.754;2023-06-10T12:52:59;31.80;39.90
37910;DHT22;23741;49.446;8.754;2023-06-10T12:55:02;31.80;42.40
37910;DHT22;23741;49.446;8.754;2023-06-10T12:57:05;31.80;42.90
37910;DHT22;23741;49.446;8.754;2023-06-10T12:59:07;31.80;42.90
37910;DHT22;23741;49.446;8.754;2023-06-10T13:01:09;31.90;43.20
37910;DHT22;23741;49.446;8.754;2023-06-10T13:03:11;31.90;39.60
37910;DHT22;23741;49.446;8.754;2023-06-10T13:05:13;31.90;41.20